Time;durP1;ratioP1;P1;durP2;ratioP2;P2;SDS_P1;SDS_P2;PMS_P1;PMS_P2;Temp;Humidity;BMP_temperature;BMP_pressure;BME280_temperature;BME280_humidity;BME280_pressure;Samples;Min_cycle;Max_cycle;Signal;HPM_P1;HPM_P2
2020/12/27 00:00:11;;;;;;;;;;;26.00;39.40;;;;;;5073587;28;20366;-64
2020/12/27 00:02:36;;;;;;;;;;;26.00;39.40;;;;;;5073800;28;19912;-64
2020/12/27 00:05:03;;;;;;;;;;;26.00;39.30;;;;;;5074624;28;20255;-64
2020/12/27 00:07:28;;;;;;;;;;;25.90;39.40;;;;;;5073793;28;19912;-64
2020/12/27 00:09:54;;;;;;;;;;;26.00;39.40;;;;;;5083895;28;20358;-64
2020/12/27 00:12:19;;;;;;;;;;;26.00;39.40;;;;;;5093557;28;19915;-64
2020/12/27 00:14:45;;;;;;;;;;;25.90;39.40;;;;;;5093720;28;19991;-64
2020/12/27 00:17:12;;;;;;;;;;;25.90;39.30;;;;;;5081548;28;19913;-64
2020/12/27 00:19:38;;;;;;;;;;;26.00;39.30;;;;;;5073431;28;19909;-64
2020/12/27 00:22:04;;;;;;;;;;;26.00;39.50;;;;;;5073261;28;19920;-64
2020/12/27 00:24:29;;;;;;;;;;;25.90;39.30;;;;;;5073326;28;19977;-64
2020/12/27 00:26:55;;;;;;;;;;;25.90;39.30;;;;;;5088900;28;20007;-64
2020/12/27 00:29:20;;;;;;;;;;;25.90;39.30;;;;;;5089491;28;19934;-65
2020/12/27 00:31:49;;;;;;;;;;;26.00;39.20;;;;;;5082119;28;19916;-63
2020/12/27 00:34:15;;;;;;;;;;;26.00;39.40;;;;;;5082577;28;20255;-63
2020/12/27 00:36:40;;;;;;;;;;;26.00;39.40;;;;;;5073196;28;19913;-63
2020/12/27 00:39:06;;;;;;;;;;;25.90;39.30;;;;;;5072295;28;19920;-63
2020/12/27 00:41:32;;;;;;;;;;;26.00;39.30;;;;;;5073173;28;20401;-63
2020/12/27 00:43:57;;;;;;;;;;;25.90;39.20;;;;;;5073287;28;20354;-63
2020/12/27 00:46:23;;;;;;;;;;;25.90;39.20;;;;;;5073060;28;19920;-63
2020/12/27 00:48:48;;;;;;;;;;;25.90;39.30;;;;;;5072977;28;19908;-63
2020/12/27 00:51:18;;;;;;;;;;;26.00;39.40;;;;;;5073029;28;20381;-63
2020/12/27 00:53:44;;;;;;;;;;;25.90;39.30;;;;;;5085338;28;19981;-63
2020/12/27 00:56:09;;;;;;;;;;;25.90;39.20;;;;;;5093319;28;20407;-63
2020/12/27 00:58:35;;;;;;;;;;;25.90;39.20;;;;;;5087001;28;19918;-63
2020/12/27 01:01:00;;;;;;;;;;;25.90;39.40;;;;;;5085941;28;19927;-63
2020/12/27 01:03:26;;;;;;;;;;;25.90;39.50;;;;;;5077492;28;19920;-62
2020/12/27 01:05:51;;;;;;;;;;;25.90;39.30;;;;;;5074154;28;20385;-64
2020/12/27 01:08:17;;;;;;;;;;;25.90;39.30;;;;;;5086077;28;20354;-62
2020/12/27 01:10:42;;;;;;;;;;;25.90;39.40;;;;;;5085695;28;19919;-63
2020/12/27 01:13:08;;;;;;;;;;;25.90;39.40;;;;;;5072666;28;19917;-63
2020/12/27 01:15:33;;;;;;;;;;;25.90;39.30;;;;;;5072800;28;20412;-64
2020/12/27 01:17:59;;;;;;;;;;;25.90;39.30;;;;;;5072438;28;19912;-64
2020/12/27 01:20:24;;;;;;;;;;;25.90;39.30;;;;;;5072750;28;19916;-64
2020/12/27 01:22:50;;;;;;;;;;;25.90;39.30;;;;;;5085004;28;20391;-64
2020/12/27 01:25:15;;;;;;;;;;;25.90;39.30;;;;;;5080414;28;19913;-64
2020/12/27 01:27:41;;;;;;;;;;;25.90;39.40;;;;;;5082064;28;20405;-62
2020/12/27 01:30:07;;;;;;;;;;;25.80;39.30;;;;;;5092533;28;19961;-64
2020/12/27 01:32:32;;;;;;;;;;;25.80;39.30;;;;;;5092849;28;20362;-64
2020/12/27 01:34:58;;;;;;;;;;;25.90;39.30;;;;;;5081063;28;19916;-64
2020/12/27 01:37:23;;;;;;;;;;;25.90;39.30;;;;;;5087739;28;19916;-64
2020/12/27 01:39:48;;;;;;;;;;;25.90;39.40;;;;;;5085619;28;19912;-64
2020/12/27 01:42:14;;;;;;;;;;;25.90;39.50;;;;;;5089883;28;20429;-63
2020/12/27 01:44:39;;;;;;;;;;;25.90;39.40;;;;;;5072573;28;19943;-64
2020/12/27 01:47:15;;;;;;;;;;;25.80;39.40;;;;;;5072612;28;19919;-64
2020/12/27 01:49:41;;;;;;;;;;;25.80;39.50;;;;;;5072351;28;19973;-64
2020/12/27 01:52:06;;;;;;;;;;;25.80;39.40;;;;;;5082214;28;20003;-64
2020/12/27 01:54:32;;;;;;;;;;;25.80;39.40;;;;;;5076417;28;20402;-64
2020/12/27 01:56:57;;;;;;;;;;;25.80;39.50;;;;;;5076031;28;19909;-64
2020/12/27 01:59:26;;;;;;;;;;;25.80;39.30;;;;;;5091616;28;20370;-63
2020/12/27 02:01:51;;;;;;;;;;;25.80;39.40;;;;;;5075905;28;19917;-64
2020/12/27 02:04:17;;;;;;;;;;;25.80;39.30;;;;;;5079509;28;19919;-64
2020/12/27 02:06:42;;;;;;;;;;;25.80;39.40;;;;;;5055969;28;19955;-64
2020/12/27 02:09:08;;;;;;;;;;;25.80;39.40;;;;;;5069972;28;20023;-64
2020/12/27 02:11:34;;;;;;;;;;;25.80;39.30;;;;;;5076030;28;19909;-64
2020/12/27 02:13:59;;;;;;;;;;;25.80;39.30;;;;;;5075710;28;19908;-64
2020/12/27 02:16:25;;;;;;;;;;;25.70;39.40;;;;;;5081612;28;19912;-64
2020/12/27 02:18:51;;;;;;;;;;;25.70;39.20;;;;;;5075859;28;19935;-64
2020/12/27 02:21:17;;;;;;;;;;;25.80;39.40;;;;;;5075557;28;19916;-64
2020/12/27 02:23:43;;;;;;;;;;;25.80;39.30;;;;;;5075382;28;19912;-64
2020/12/27 02:26:08;;;;;;;;;;;25.80;39.30;;;;;;5076544;28;19912;-64
2020/12/27 02:28:34;;;;;;;;;;;25.80;39.30;;;;;;5083146;28;20393;-64
2020/12/27 02:30:59;;;;;;;;;;;25.80;39.40;;;;;;5095617;28;19915;-64
2020/12/27 02:33:25;;;;;;;;;;;25.70;39.30;;;;;;5092503;28;19920;-64
2020/12/27 02:35:50;;;;;;;;;;;25.80;39.30;;;;;;5075632;28;19908;-64
2020/12/27 02:38:16;;;;;;;;;;;25.70;39.30;;;;;;5075529;28;19913;-64
2020/12/27 02:40:41;;;;;;;;;;;25.70;39.30;;;;;;5075260;28;19920;-64
2020/12/27 02:43:07;;;;;;;;;;;25.70;39.30;;;;;;5089544;28;19916;-64
2020/12/27 02:45:32;;;;;;;;;;;25.70;39.30;;;;;;5094040;28;19919;-64
2020/12/27 02:47:58;;;;;;;;;;;25.70;39.30;;;;;;5077834;28;19920;-64
2020/12/27 02:50:23;;;;;;;;;;;25.70;39.20;;;;;;5075260;28;19912;-64
2020/12/27 02:52:49;;;;;;;;;;;25.70;39.20;;;;;;5075367;28;20266;-64
2020/12/27 02:55:14;;;;;;;;;;;25.70;39.30;;;;;;5087569;28;19912;-64
2020/12/27 02:57:40;;;;;;;;;;;25.70;39.20;;;;;;5095409;28;19908;-64
2020/12/27 03:00:05;;;;;;;;;;;25.70;39.30;;;;;;5094898;28;20289;-63
2020/12/27 03:02:31;;;;;;;;;;;25.70;39.20;;;;;;5082367;28;20007;-63
2020/12/27 03:04:56;;;;;;;;;;;25.70;39.20;;;;;;5075234;28;19947;-64
2020/12/27 03:07:22;;;;;;;;;;;25.70;39.30;;;;;;5075309;28;20291;-63
2020/12/27 03:09:47;;;;;;;;;;;25.70;39.30;;;;;;5094890;28;20003;-64
2020/12/27 03:12:12;;;;;;;;;;;25.70;39.20;;;;;;5082666;28;19920;-63
2020/12/27 03:14:38;;;;;;;;;;;25.70;39.30;;;;;;5093613;28;20010;-63
2020/12/27 03:17:03;;;;;;;;;;;25.70;39.30;;;;;;5088542;28;20369;-64
2020/12/27 03:19:29;;;;;;;;;;;25.70;39.30;;;;;;5074729;28;19909;-64
2020/12/27 03:21:54;;;;;;;;;;;25.70;39.30;;;;;;5087415;28;20379;-63
2020/12/27 03:24:20;;;;;;;;;;;25.70;39.30;;;;;;5094708;28;19908;-63
2020/12/27 03:26:45;;;;;;;;;;;25.70;39.40;;;;;;5093723;28;20286;-63
2020/12/27 03:29:11;;;;;;;;;;;25.70;39.40;;;;;;5094473;28;19998;-65
2020/12/27 03:31:36;;;;;;;;;;;25.70;39.40;;;;;;5074680;28;19912;-65
2020/12/27 03:34:02;;;;;;;;;;;25.70;39.40;;;;;;5075116;28;19982;-64
2020/12/27 03:36:27;;;;;;;;;;;25.60;39.40;;;;;;5078976;28;19955;-64
2020/12/27 03:38:53;;;;;;;;;;;25.60;39.40;;;;;;5074256;28;19913;-64
2020/12/27 03:41:18;;;;;;;;;;;25.60;39.40;;;;;;5074412;28;20367;-64
2020/12/27 03:43:44;;;;;;;;;;;25.60;39.40;;;;;;5080026;28;19912;-64
2020/12/27 03:46:10;;;;;;;;;;;25.60;39.30;;;;;;5094547;28;19998;-64
2020/12/27 03:48:35;;;;;;;;;;;25.60;39.20;;;;;;5080661;28;20367;-64
2020/12/27 03:51:00;;;;;;;;;;;25.70;39.20;;;;;;5074172;28;19908;-64
2020/12/27 03:53:26;;;;;;;;;;;25.70;39.10;;;;;;5074046;28;20444;-64
2020/12/27 03:55:51;;;;;;;;;;;25.70;39.10;;;;;;5073626;28;20132;-64
2020/12/27 03:58:17;;;;;;;;;;;25.70;39.00;;;;;;5073963;28;19908;-64
2020/12/27 04:00:42;;;;;;;;;;;25.70;39.00;;;;;;5065363;28;20416;-64
2020/12/27 04:03:08;;;;;;;;;;;25.70;39.00;;;;;;5064902;28;19917;-64
2020/12/27 04:05:33;;;;;;;;;;;25.70;39.10;;;;;;5073601;28;20320;-64
2020/12/27 04:07:59;;;;;;;;;;;25.70;39.00;;;;;;5073500;28;19909;-64
2020/12/27 04:10:24;;;;;;;;;;;25.70;39.00;;;;;;5073510;28;19908;-64
2020/12/27 04:12:50;;;;;;;;;;;25.70;39.00;;;;;;5089833;28;19912;-64
2020/12/27 04:15:15;;;;;;;;;;;25.70;39.00;;;;;;5083358;28;19912;-65
2020/12/27 04:17:40;;;;;;;;;;;25.60;39.00;;;;;;5074560;28;19916;-64
2020/12/27 04:20:06;;;;;;;;;;;25.70;39.00;;;;;;5073639;28;20007;-65
2020/12/27 04:22:31;;;;;;;;;;;25.70;39.10;;;;;;5073349;28;20271;-64
2020/12/27 04:24:57;;;;;;;;;;;25.70;39.00;;;;;;5073184;28;19916;-65
2020/12/27 04:27:22;;;;;;;;;;;25.60;39.00;;;;;;5076850;28;19920;-64
2020/12/27 04:29:48;;;;;;;;;;;25.60;39.00;;;;;;5093678;28;20230;-64
2020/12/27 04:32:13;;;;;;;;;;;25.60;39.00;;;;;;5093380;28;19912;-64
2020/12/27 04:34:39;;;;;;;;;;;25.60;39.20;;;;;;5093699;28;19958;-64
2020/12/27 04:37:04;;;;;;;;;;;25.60;39.10;;;;;;5093578;28;19908;-64
2020/12/27 04:39:30;;;;;;;;;;;25.60;39.00;;;;;;5084259;28;19969;-65
2020/12/27 04:41:55;;;;;;;;;;;25.60;39.00;;;;;;5081703;28;19927;-64
2020/12/27 04:44:21;;;;;;;;;;;25.60;39.00;;;;;;5075478;28;19942;-65
2020/12/27 04:46:46;;;;;;;;;;;25.60;39.00;;;;;;5073089;28;19916;-64
2020/12/27 04:49:12;;;;;;;;;;;25.60;39.10;;;;;;5070726;28;19916;-64
2020/12/27 04:51:37;;;;;;;;;;;25.60;39.00;;;;;;5052927;28;19909;-65
2020/12/27 04:54:03;;;;;;;;;;;25.60;39.00;;;;;;5056636;28;20382;-63
2020/12/27 04:56:28;;;;;;;;;;;25.60;39.00;;;;;;5073076;28;19913;-63
2020/12/27 04:58:54;;;;;;;;;;;25.60;39.00;;;;;;5073048;28;19918;-63
2020/12/27 05:01:20;;;;;;;;;;;25.60;39.00;;;;;;5078295;28;20024;-64
2020/12/27 05:03:45;;;;;;;;;;;25.60;39.00;;;;;;5083437;28;19912;-63
2020/12/27 05:06:14;;;;;;;;;;;25.60;39.00;;;;;;5072654;28;19909;-63
2020/12/27 05:08:40;;;;;;;;;;;25.60;39.00;;;;;;5091077;28;19920;-64
2020/12/27 05:11:06;;;;;;;;;;;25.60;39.00;;;;;;5092889;28;20389;-64
2020/12/27 05:13:31;;;;;;;;;;;25.60;39.00;;;;;;5080505;28;19939;-63
2020/12/27 05:15:57;;;;;;;;;;;25.50;38.90;;;;;;5072925;28;19954;-64
2020/12/27 05:18:22;;;;;;;;;;;25.60;39.00;;;;;;5088047;28;19913;-64
2020/12/27 05:20:48;;;;;;;;;;;25.60;39.00;;;;;;5079169;28;19920;-64
2020/12/27 05:23:13;;;;;;;;;;;25.60;39.00;;;;;;5091764;28;19971;-63
2020/12/27 05:25:39;;;;;;;;;;;25.60;39.00;;;;;;5092678;28;20018;-63
2020/12/27 05:28:08;;;;;;;;;;;25.60;39.00;;;;;;5095958;28;19931;-63
2020/12/27 05:30:34;;;;;;;;;;;25.50;38.90;;;;;;5086779;28;19912;-63
2020/12/27 05:32:59;;;;;;;;;;;25.60;39.00;;;;;;5088652;28;20025;-64
2020/12/27 05:35:25;;;;;;;;;;;25.50;38.90;;;;;;5089987;28;19917;-63
2020/12/27 05:37:51;;;;;;;;;;;25.50;38.90;;;;;;5076351;28;19909;-63
2020/12/27 05:40:17;;;;;;;;;;;25.50;38.90;;;;;;5076372;28;19912;-63
2020/12/27 05:42:45;;;;;;;;;;;25.50;38.90;;;;;;5076504;28;19978;-63
2020/12/27 05:45:11;;;;;;;;;;;25.50;38.90;;;;;;5076276;28;20023;-63
2020/12/27 05:47:37;;;;;;;;;;;25.50;38.90;;;;;;5092375;28;19912;-63
2020/12/27 05:50:03;;;;;;;;;;;25.50;38.90;;;;;;5088186;28;19923;-63
2020/12/27 05:52:33;;;;;;;;;;;25.50;38.90;;;;;;5090232;28;19916;-63
2020/12/27 05:54:58;;;;;;;;;;;25.50;38.90;;;;;;5096836;28;19912;-64
2020/12/27 05:57:24;;;;;;;;;;;25.50;38.90;;;;;;5095422;28;20354;-63
2020/12/27 05:59:49;;;;;;;;;;;25.50;38.90;;;;;;5095073;28;19908;-63
2020/12/27 06:02:34;;;;;;;;;;;25.50;38.90;;;;;;5078665;28;19935;-65
2020/12/27 06:05:06;;;;;;;;;;;25.50;38.90;;;;;;5075933;28;19912;-65
2020/12/27 06:07:32;;;;;;;;;;;25.50;38.90;;;;;;5075832;28;20362;-65
2020/12/27 06:10:02;;;;;;;;;;;25.50;38.90;;;;;;5076192;28;19935;-64
2020/12/27 06:12:51;;;;;;;;;;;25.50;38.90;;;;;;5076103;28;19909;-63
2020/12/27 06:15:29;;;;;;;;;;;25.50;38.90;;;;;;5045472;28;19944;-65
2020/12/27 06:17:57;;;;;;;;;;;25.50;38.90;;;;;;5074588;28;20376;-63
2020/12/27 06:20:23;;;;;;;;;;;25.50;38.90;;;;;;5094074;28;19939;-64
2020/12/27 06:22:49;;;;;;;;;;;25.40;38.80;;;;;;5095766;28;20365;-64
2020/12/27 06:25:15;;;;;;;;;;;25.50;38.90;;;;;;5095778;28;19908;-63
2020/12/27 06:27:40;;;;;;;;;;;25.40;38.80;;;;;;5094971;28;19920;-64
2020/12/27 06:30:09;;;;;;;;;;;25.40;38.80;;;;;;5094188;28;19955;-64
2020/12/27 06:32:36;;;;;;;;;;;25.50;38.90;;;;;;5078488;28;20290;-63
2020/12/27 06:35:10;;;;;;;;;;;25.50;38.90;;;;;;5074398;28;19999;-65
2020/12/27 06:37:39;;;;;;;;;;;25.50;38.90;;;;;;5075294;28;19928;-63
2020/12/27 06:40:05;;;;;;;;;;;25.40;38.90;;;;;;5075456;28;19952;-63
2020/12/27 06:42:30;;;;;;;;;;;25.40;38.90;;;;;;5075038;28;19982;-65
2020/12/27 06:44:55;;;;;;;;;;;25.40;38.80;;;;;;5075194;28;19913;-64
2020/12/27 06:47:41;;;;;;;;;;;25.50;38.90;;;;;;5075485;28;20022;-63
2020/12/27 06:50:33;;;;;;;;;;;25.50;38.90;;;;;;5079647;28;19916;-63
2020/12/27 06:52:58;;;;;;;;;;;25.50;38.90;;;;;;5073824;28;19916;-64
2020/12/27 06:55:33;;;;;;;;;;;25.40;38.90;;;;;;5074944;28;20230;-65
2020/12/27 06:58:18;;;;;;;;;;;25.50;38.90;;;;;;5081147;28;20015;-63
2020/12/27 07:00:43;;;;;;;;;;;25.40;38.80;;;;;;5054914;28;20016;-64
2020/12/27 07:03:09;;;;;;;;;;;25.40;38.80;;;;;;5071637;28;20413;-64
2020/12/27 07:05:35;;;;;;;;;;;25.40;38.80;;;;;;5069537;28;19919;-64
2020/12/27 07:08:02;;;;;;;;;;;25.40;38.80;;;;;;5095105;28;19991;-63
2020/12/27 07:10:28;;;;;;;;;;;25.40;38.80;;;;;;5092249;28;19912;-63
2020/12/27 07:13:14;;;;;;;;;;;25.40;38.80;;;;;;5074877;28;19958;-63
2020/12/27 07:15:49;;;;;;;;;;;25.40;38.80;;;;;;5074396;28;19915;-63
2020/12/27 07:18:21;;;;;;;;;;;25.40;38.80;;;;;;5074723;28;19908;-63
2020/12/27 07:20:48;;;;;;;;;;;25.40;38.90;;;;;;5063124;28;19923;-63
2020/12/27 07:23:18;;;;;;;;;;;25.40;38.80;;;;;;5078376;28;20017;-63
2020/12/27 07:25:43;;;;;;;;;;;25.40;38.90;;;;;;5074364;28;19919;-63
2020/12/27 07:28:09;;;;;;;;;;;25.40;38.80;;;;;;5074228;28;19921;-65
2020/12/27 07:30:35;;;;;;;;;;;25.40;38.80;;;;;;5077028;28;19912;-64
2020/12/27 07:33:04;;;;;;;;;;;25.40;38.90;;;;;;5074406;28;20267;-65
2020/12/27 07:35:30;;;;;;;;;;;25.40;38.80;;;;;;5090186;28;19915;-65
2020/12/27 07:37:59;;;;;;;;;;;25.40;38.80;;;;;;5076095;28;20024;-64
2020/12/27 07:40:24;;;;;;;;;;;25.40;38.80;;;;;;5077701;28;20390;-65
2020/12/27 07:42:50;;;;;;;;;;;25.40;38.80;;;;;;5089672;28;19962;-64
2020/12/27 07:45:15;;;;;;;;;;;25.40;38.90;;;;;;5074292;28;20380;-65
2020/12/27 07:47:41;;;;;;;;;;;25.30;38.80;;;;;;5087739;28;19919;-63
2020/12/27 07:50:07;;;;;;;;;;;25.40;38.90;;;;;;5087880;28;19913;-63
2020/12/27 07:52:55;;;;;;;;;;;25.30;38.80;;;;;;5085152;28;19920;-63
2020/12/27 07:55:23;;;;;;;;;;;25.30;38.80;;;;;;5073730;28;20431;-65
2020/12/27 07:57:49;;;;;;;;;;;25.30;38.80;;;;;;5073935;28;19978;-63
2020/12/27 08:00:14;;;;;;;;;;;25.30;38.80;;;;;;5073969;28;19912;-64
2020/12/27 08:02:43;;;;;;;;;;;25.30;38.80;;;;;;5083373;28;20335;-64
2020/12/27 08:05:12;;;;;;;;;;;25.30;38.80;;;;;;5085088;28;19916;-65
2020/12/27 08:07:37;;;;;;;;;;;25.30;38.80;;;;;;5073582;28;19908;-63
2020/12/27 08:10:32;;;;;;;;;;;25.30;38.80;;;;;;5073492;28;20328;-64
2020/12/27 08:12:59;;;;;;;;;;;25.30;38.80;;;;;;5068836;28;20336;-64
2020/12/27 08:15:25;;;;;;;;;;;25.30;38.80;;;;;;5073647;28;19912;-63
2020/12/27 08:18:00;;;;;;;;;;;25.30;38.80;;;;;;5080243;28;19912;-63
2020/12/27 08:20:26;;;;;;;;;;;25.30;38.80;;;;;;5082829;28;19912;-63
2020/12/27 08:22:58;;;;;;;;;;;25.30;38.80;;;;;;5083981;28;19920;-63
2020/12/27 08:25:24;;;;;;;;;;;25.30;38.80;;;;;;5093498;28;20369;-64
2020/12/27 08:27:53;;;;;;;;;;;25.30;38.80;;;;;;5093257;28;19927;-64
2020/12/27 08:30:18;;;;;;;;;;;25.30;38.80;;;;;;5093399;28;19916;-65
2020/12/27 08:32:44;;;;;;;;;;;25.30;38.80;;;;;;5089169;28;19919;-64
2020/12/27 08:35:09;;;;;;;;;;;25.30;38.80;;;;;;5093609;28;19970;-65
2020/12/27 08:37:34;;;;;;;;;;;25.30;38.80;;;;;;5092010;28;19914;-63
2020/12/27 08:40:02;;;;;;;;;;;25.30;38.80;;;;;;5084404;28;19934;-63
2020/12/27 08:42:36;;;;;;;;;;;25.20;38.70;;;;;;5079462;28;20476;-63
2020/12/27 08:45:02;;;;;;;;;;;25.30;38.80;;;;;;5081175;28;19913;-63
2020/12/27 08:47:46;;;;;;;;;;;25.30;38.80;;;;;;5053147;28;19908;-63
2020/12/27 08:50:20;;;;;;;;;;;25.30;38.80;;;;;;5066092;28;20358;-65
2020/12/27 08:52:45;;;;;;;;;;;25.20;38.70;;;;;;5091840;28;19930;-65
2020/12/27 08:55:11;;;;;;;;;;;25.20;38.70;;;;;;5091923;28;19908;-63
2020/12/27 08:57:37;;;;;;;;;;;25.20;38.70;;;;;;5081346;28;19912;-63
2020/12/27 09:00:12;;;;;;;;;;;25.20;38.70;;;;;;5072762;28;20548;-63
2020/12/27 09:02:38;;;;;;;;;;;25.20;38.70;;;;;;5072947;28;20370;-64
2020/12/27 09:05:03;;;;;;;;;;;25.20;38.70;;;;;;5073837;28;20370;-63
2020/12/27 09:07:41;;;;;;;;;;;25.30;38.80;;;;;;5086359;28;19961;-63
2020/12/27 09:10:27;;;;;;;;;;;25.20;38.70;;;;;;5084249;28;19913;-63
2020/12/27 09:12:59;;;;;;;;;;;25.20;38.70;;;;;;5071623;28;20003;-63
2020/12/27 09:15:28;;;;;;;;;;;25.20;38.70;;;;;;5073989;28;19959;-63
2020/12/27 09:18:03;;;;;;;;;;;25.20;39.30;;;;;;5078984;28;19912;-63
2020/12/27 09:20:29;;;;;;;;;;;25.30;39.50;;;;;;5074082;28;19952;-63
2020/12/27 09:22:54;;;;;;;;;;;25.50;39.50;;;;;;5084989;28;19981;-63
2020/12/27 09:25:20;;;;;;;;;;;25.60;39.30;;;;;;5093181;28;19912;-63
2020/12/27 09:27:46;;;;;;;;;;;25.70;39.30;;;;;;5092652;28;19927;-63
2020/12/27 09:30:18;;;;;;;;;;;25.70;39.00;;;;;;5093150;28;19908;-63
2020/12/27 09:32:44;;;;;;;;;;;25.70;39.10;;;;;;5092731;28;20381;-63
2020/12/27 09:35:15;;;;;;;;;;;25.70;39.00;;;;;;5076150;28;19955;-63
2020/12/27 09:37:41;;;;;;;;;;;25.70;39.20;;;;;;5072524;28;19915;-63
2020/12/27 09:40:06;;;;;;;;;;;25.70;39.00;;;;;;5072469;28;19909;-64
2020/12/27 09:42:32;;;;;;;;;;;25.70;39.00;;;;;;5072559;28;19917;-63
2020/12/27 09:44:58;;;;;;;;;;;25.70;39.00;;;;;;5072524;28;20356;-63
2020/12/27 09:47:24;;;;;;;;;;;25.80;39.10;;;;;;5072698;28;19912;-64
2020/12/27 09:50:03;;;;;;;;;;;25.80;39.10;;;;;;5072655;28;19909;-63
2020/12/27 09:52:28;;;;;;;;;;;25.70;39.00;;;;;;5072472;28;19915;-64
2020/12/27 09:54:54;;;;;;;;;;;25.70;39.00;;;;;;5077597;28;19912;-64
2020/12/27 09:57:20;;;;;;;;;;;25.80;39.10;;;;;;5079478;28;20358;-64
2020/12/27 09:59:46;;;;;;;;;;;25.80;39.10;;;;;;5072587;28;19936;-63
2020/12/27 10:02:12;;;;;;;;;;;25.80;39.10;;;;;;5072194;28;19916;-63
2020/12/27 10:04:37;;;;;;;;;;;25.80;39.10;;;;;;5072574;28;19963;-64
2020/12/27 10:07:03;;;;;;;;;;;25.80;39.00;;;;;;5081380;28;19912;-64
2020/12/27 10:09:28;;;;;;;;;;;25.80;39.00;;;;;;5090841;28;19909;-63
2020/12/27 10:11:54;;;;;;;;;;;25.80;39.00;;;;;;5075245;28;19912;-64
2020/12/27 10:14:19;;;;;;;;;;;25.80;39.00;;;;;;5076021;28;19920;-64
2020/12/27 10:16:45;;;;;;;;;;;25.90;38.90;;;;;;5075746;28;20420;-64
2020/12/27 10:19:10;;;;;;;;;;;25.90;38.90;;;;;;5075666;28;19912;-63
2020/12/27 10:21:35;;;;;;;;;;;25.90;38.90;;;;;;5075764;28;19927;-63
2020/12/27 10:24:01;;;;;;;;;;;25.90;38.90;;;;;;5075819;28;20366;-63
2020/12/27 10:26:26;;;;;;;;;;;25.90;38.90;;;;;;5075508;28;19909;-63
2020/12/27 10:28:52;;;;;;;;;;;25.90;38.90;;;;;;5075225;28;19912;-64
2020/12/27 10:31:17;;;;;;;;;;;25.90;38.90;;;;;;5075559;28;19987;-63
2020/12/27 10:33:43;;;;;;;;;;;25.90;38.80;;;;;;5075535;28;19912;-64
2020/12/27 10:36:08;;;;;;;;;;;25.90;38.90;;;;;;5075801;28;19908;-63
2020/12/27 10:38:34;;;;;;;;;;;25.90;38.90;;;;;;5075529;28;19915;-64
2020/12/27 10:41:00;;;;;;;;;;;25.90;38.90;;;;;;5075493;28;19967;-64
2020/12/27 10:43:25;;;;;;;;;;;25.90;38.80;;;;;;5075494;28;19912;-64
2020/12/27 10:45:56;;;;;;;;;;;25.90;38.80;;;;;;5086710;28;19924;-64
2020/12/27 10:48:22;;;;;;;;;;;25.90;38.80;;;;;;5087124;28;20400;-64
2020/12/27 10:50:47;;;;;;;;;;;25.90;38.70;;;;;;5075411;28;19984;-64
2020/12/27 10:53:13;;;;;;;;;;;25.90;38.70;;;;;;5075500;28;19913;-63
2020/12/27 10:55:38;;;;;;;;;;;25.90;38.70;;;;;;5089386;28;19912;-63
2020/12/27 10:58:04;;;;;;;;;;;25.90;38.70;;;;;;5084977;28;19982;-63
2020/12/27 11:00:29;;;;;;;;;;;25.90;38.70;;;;;;5078495;28;19912;-62
2020/12/27 11:02:55;;;;;;;;;;;25.90;38.70;;;;;;5095206;28;19934;-63
2020/12/27 11:05:20;;;;;;;;;;;25.90;38.70;;;;;;5095474;28;20417;-62
2020/12/27 11:07:46;;;;;;;;;;;25.90;38.70;;;;;;5095079;28;19912;-62
2020/12/27 11:10:11;;;;;;;;;;;25.90;38.70;;;;;;5094988;28;20049;-62
2020/12/27 11:12:36;;;;;;;;;;;25.90;38.80;;;;;;5092550;28;20275;-63
2020/12/27 11:15:02;;;;;;;;;;;25.90;38.70;;;;;;5095063;28;20000;-63
2020/12/27 11:17:27;;;;;;;;;;;25.90;38.70;;;;;;5094102;28;20381;-62
2020/12/27 11:19:53;;;;;;;;;;;25.90;38.70;;;;;;5094850;28;19966;-63
2020/12/27 11:22:19;;;;;;;;;;;25.90;38.70;;;;;;5094840;28;19916;-62
2020/12/27 11:24:44;;;;;;;;;;;25.90;38.70;;;;;;5093409;28;19912;-62
2020/12/27 11:27:10;;;;;;;;;;;25.90;38.70;;;;;;5094417;28;19920;-62
2020/12/27 11:29:35;;;;;;;;;;;25.90;38.60;;;;;;5094995;28;20007;-62
2020/12/27 11:32:01;;;;;;;;;;;25.90;38.60;;;;;;5094609;28;19908;-63
2020/12/27 11:34:26;;;;;;;;;;;25.90;38.70;;;;;;5094633;28;19944;-62
2020/12/27 11:36:51;;;;;;;;;;;25.90;38.60;;;;;;5094837;28;20353;-63
2020/12/27 11:39:17;;;;;;;;;;;25.90;38.60;;;;;;5093362;28;19916;-63
2020/12/27 11:41:46;;;;;;;;;;;26.00;38.60;;;;;;5084141;28;19940;-63
2020/12/27 11:44:11;;;;;;;;;;;25.90;38.60;;;;;;5074170;28;19961;-63
2020/12/27 11:46:37;;;;;;;;;;;25.90;38.60;;;;;;5074038;28;19917;-63
2020/12/27 11:49:02;;;;;;;;;;;25.90;38.60;;;;;;5073967;28;19936;-63
2020/12/27 11:51:28;;;;;;;;;;;25.90;38.60;;;;;;5087529;28;19959;-62
2020/12/27 11:53:53;;;;;;;;;;;26.00;38.50;;;;;;5094219;28;19970;-62
2020/12/27 11:56:19;;;;;;;;;;;26.00;38.50;;;;;;5094325;28;19962;-63
2020/12/27 11:58:45;;;;;;;;;;;25.90;38.50;;;;;;5094182;28;20282;-63
2020/12/27 12:01:11;;;;;;;;;;;25.90;38.40;;;;;;5090967;28;19939;-63
2020/12/27 12:03:36;;;;;;;;;;;26.00;38.50;;;;;;5073704;28;19912;-62
2020/12/27 12:06:02;;;;;;;;;;;26.00;38.50;;;;;;5074095;28;20543;-62
2020/12/27 12:08:27;;;;;;;;;;;25.90;38.40;;;;;;5073836;28;19986;-62
2020/12/27 12:10:53;;;;;;;;;;;25.90;38.40;;;;;;5087956;28;19922;-63
2020/12/27 12:13:18;;;;;;;;;;;26.00;38.50;;;;;;5094208;28;19957;-62
2020/12/27 12:15:44;;;;;;;;;;;25.90;38.40;;;;;;5093855;28;20353;-62
2020/12/27 12:18:09;;;;;;;;;;;26.00;38.50;;;;;;5078533;28;19909;-62
2020/12/27 12:20:47;;;;;;;;;;;26.00;38.40;;;;;;5073698;28;20278;-62
2020/12/27 12:23:15;;;;;;;;;;;26.00;38.40;;;;;;5073399;28;19913;-63
2020/12/27 12:25:41;;;;;;;;;;;25.90;38.40;;;;;;5076147;28;19909;-62
2020/12/27 12:28:06;;;;;;;;;;;25.90;38.40;;;;;;5073158;28;19920;-63
2020/12/27 12:30:32;;;;;;;;;;;25.90;38.40;;;;;;5080904;28;19912;-63
2020/12/27 12:32:57;;;;;;;;;;;25.90;38.40;;;;;;5093871;28;19908;-64
2020/12/27 12:35:23;;;;;;;;;;;25.90;38.50;;;;;;5093548;28;19919;-66
2020/12/27 12:37:48;;;;;;;;;;;25.90;38.60;;;;;;5093339;28;19912;-58
2020/12/27 12:40:14;;;;;;;;;;;25.90;38.90;;;;;;5078287;28;19909;-52
2020/12/27 12:42:39;;;;;;;;;;;25.90;39.10;;;;;;5072897;28;19916;-55
2020/12/27 12:45:08;;;;;;;;;;;25.90;39.10;;;;;;5078807;28;20003;-64
2020/12/27 12:47:33;;;;;;;;;;;25.90;39.20;;;;;;5093445;28;19912;-65
2020/12/27 12:49:59;;;;;;;;;;;25.90;39.20;;;;;;5093398;28;19935;-64
2020/12/27 12:52:24;;;;;;;;;;;25.90;38.90;;;;;;5093308;28;19912;-63
2020/12/27 12:54:50;;;;;;;;;;;25.90;38.60;;;;;;5093253;28;20365;-63
2020/12/27 12:57:15;;;;;;;;;;;26.00;38.60;;;;;;5093273;28;19908;-64
2020/12/27 12:59:40;;;;;;;;;;;26.00;38.70;;;;;;5091326;28;19912;-65
2020/12/27 13:02:06;;;;;;;;;;;26.10;43.40;;;;;;5091489;28;19921;-65
2020/12/27 13:04:31;;;;;;;;;;;26.10;43.50;;;;;;5092962;28;19909;-65
2020/12/27 13:06:57;;;;;;;;;;;26.10;43.10;;;;;;5093162;28;19998;-63
2020/12/27 13:09:22;;;;;;;;;;;26.10;43.20;;;;;;5092967;28;19919;-64
2020/12/27 13:11:48;;;;;;;;;;;26.20;44.10;;;;;;5078454;28;19913;-64
2020/12/27 13:14:13;;;;;;;;;;;26.20;43.80;;;;;;5072974;28;20440;-63
2020/12/27 13:16:45;;;;;;;;;;;26.20;44.10;;;;;;5077860;28;19925;-63
2020/12/27 13:19:10;;;;;;;;;;;26.20;44.30;;;;;;5072611;28;19964;-63
2020/12/27 13:21:35;;;;;;;;;;;26.20;44.00;;;;;;5072795;28;19956;-65
2020/12/27 13:24:01;;;;;;;;;;;26.20;43.70;;;;;;5072727;28;20301;-63
2020/12/27 13:26:27;;;;;;;;;;;26.20;43.80;;;;;;5092086;28;19962;-63
2020/12/27 13:28:52;;;;;;;;;;;26.20;43.60;;;;;;5092610;28;19916;-63
2020/12/27 13:31:17;;;;;;;;;;;26.20;43.60;;;;;;5093101;28;19908;-64
2020/12/27 13:33:43;;;;;;;;;;;26.20;43.60;;;;;;5092887;28;19920;-64
2020/12/27 13:36:08;;;;;;;;;;;26.10;43.20;;;;;;5086261;28;19913;-63
2020/12/27 13:38:34;;;;;;;;;;;26.10;43.30;;;;;;5072425;28;19916;-63
2020/12/27 13:40:59;;;;;;;;;;;26.20;43.30;;;;;;5072368;28;20015;-64
2020/12/27 13:43:25;;;;;;;;;;;26.10;43.10;;;;;;5072354;28;19962;-63
2020/12/27 13:45:50;;;;;;;;;;;26.20;43.20;;;;;;5072367;28;20326;-64
2020/12/27 13:48:16;;;;;;;;;;;26.10;43.10;;;;;;5074544;28;19915;-63
2020/12/27 13:50:41;;;;;;;;;;;26.20;43.00;;;;;;5073008;28;19920;-63
2020/12/27 13:53:07;;;;;;;;;;;26.10;42.90;;;;;;5056083;28;19909;-63
2020/12/27 13:55:32;;;;;;;;;;;26.20;42.80;;;;;;5056457;28;19982;-63
2020/12/27 13:57:58;;;;;;;;;;;26.20;42.80;;;;;;5055998;28;19916;-63
2020/12/27 14:00:23;;;;;;;;;;;26.10;42.70;;;;;;5056078;28;19923;-64
2020/12/27 14:02:49;;;;;;;;;;;26.10;42.60;;;;;;5056186;28;19951;-64
2020/12/27 14:05:14;;;;;;;;;;;26.10;42.50;;;;;;5083605;28;19912;-64
2020/12/27 14:07:39;;;;;;;;;;;26.10;42.50;;;;;;5096120;28;19960;-63
2020/12/27 14:10:06;;;;;;;;;;;26.20;42.60;;;;;;5096259;28;20281;-64
2020/12/27 14:12:31;;;;;;;;;;;26.10;42.40;;;;;;5091154;28;19919;-63